createdAt,value
2018-11-12T00:00:32.532Z,15.28
2018-11-12T00:03:00.593Z,13.25
2018-11-12T00:05:28.637Z,12.25
2018-11-12T00:07:56.452Z,11.85
2018-11-12T00:10:24.193Z,10.65
2018-11-12T00:12:51.970Z,11.10
2018-11-12T00:15:19.681Z,9.93
2018-11-12T00:17:47.370Z,11.18
2018-11-12T00:20:21.845Z,9.08
2018-11-12T00:22:49.553Z,10.03
2018-11-12T00:25:17.303Z,10.65
2018-11-12T00:27:44.994Z,9.55
2018-11-12T00:30:15.371Z,9.80
2018-11-12T00:32:43.889Z,9.15
2018-11-12T00:35:11.956Z,9.70
2018-11-12T00:37:40.523Z,11.03
2018-11-12T00:40:10.639Z,11.30
2018-11-12T00:42:38.449Z,10.32
2018-11-12T00:45:06.525Z,10.05
2018-11-12T00:47:34.220Z,10.30
2018-11-12T00:50:01.956Z,11.05
2018-11-12T00:52:29.656Z,12.37
2018-11-12T00:54:57.384Z,11.57
2018-11-12T00:57:25.164Z,12.20
2018-11-12T00:59:52.848Z,14.70
2018-11-12T01:02:20.644Z,13.40
2018-11-12T01:04:48.489Z,13.55
2018-11-12T01:07:16.213Z,12.40
2018-11-12T01:09:43.888Z,13.90
2018-11-12T01:12:11.622Z,12.43
2018-11-12T01:14:39.328Z,11.53
2018-11-12T01:17:07.032Z,12.45
2018-11-12T01:19:34.739Z,14.73
2018-11-12T01:22:02.443Z,16.62
2018-11-12T01:24:30.115Z,19.57
2018-11-12T01:26:57.802Z,20.48
2018-11-12T01:29:25.526Z,19.87
2018-11-12T01:31:53.200Z,20.32
2018-11-12T01:34:20.895Z,19.98
2018-11-12T01:36:48.623Z,19.25
2018-11-12T01:39:16.311Z,20.97
2018-11-12T01:41:44.017Z,22.05
2018-11-12T01:44:11.721Z,19.35
2018-11-12T01:46:39.425Z,21.07
2018-11-12T01:49:07.159Z,23.55
2018-11-12T01:51:35.329Z,20.97
2018-11-12T01:54:03.051Z,19.73
2018-11-12T01:56:30.730Z,21.48
2018-11-12T01:58:58.472Z,21.65
2018-11-12T02:01:26.276Z,21.85
2018-11-12T02:03:53.992Z,22.67
2018-11-12T02:06:21.711Z,21.62
2018-11-12T02:08:49.403Z,23.45
2018-11-12T02:11:17.250Z,20.32
2018-11-12T02:13:44.920Z,19.73
2018-11-12T02:16:12.648Z,19.85
2018-11-12T02:18:40.366Z,19.60
2018-11-12T02:21:08.557Z,18.60
2018-11-12T02:23:36.745Z,19.42
2018-11-12T02:26:04.848Z,19.45
2018-11-12T02:28:32.594Z,21.15
2018-11-12T02:31:00.324Z,18.92
2018-11-12T02:33:28.017Z,18.17
2018-11-12T02:35:55.730Z,19.82
2018-11-12T02:38:23.420Z,19.20
2018-11-12T02:40:51.157Z,19.98
2018-11-12T02:43:18.857Z,17.62
2018-11-12T02:45:46.584Z,20.15
2018-11-12T02:48:14.285Z,21.05
2018-11-12T02:50:41.990Z,22.22
2018-11-12T02:53:09.714Z,22.48
2018-11-12T02:55:37.419Z,22.45
2018-11-12T02:58:05.172Z,20.48
2018-11-12T03:00:32.873Z,21.55
2018-11-12T03:03:00.574Z,21.68
2018-11-12T03:05:28.260Z,22.00
2018-11-12T03:07:55.941Z,22.13
2018-11-12T03:10:24.611Z,22.27
2018-11-12T03:12:52.423Z,22.17
2018-11-12T03:15:20.676Z,22.87
2018-11-12T03:17:49.008Z,22.30
2018-11-12T03:20:17.875Z,20.95
2018-11-12T03:22:45.599Z,21.82
2018-11-12T03:25:14.541Z,22.80
2018-11-12T03:27:43.105Z,22.85
2018-11-12T03:30:12.728Z,22.60
2018-11-12T03:32:40.666Z,21.37
2018-11-12T03:35:09.678Z,19.35
2018-11-12T03:37:37.488Z,19.70
2018-11-12T03:40:07.686Z,20.40
2018-11-12T03:42:35.382Z,19.92
2018-11-12T03:45:03.717Z,21.95
2018-11-12T03:47:31.417Z,20.08
2018-11-12T03:49:59.103Z,19.87
2018-11-12T03:52:26.812Z,21.27
2018-11-12T03:54:54.504Z,18.67
2018-11-12T03:57:22.225Z,20.62
2018-11-12T03:59:49.912Z,18.25
2018-11-12T04:02:17.608Z,16.52
2018-11-12T04:04:45.319Z,18.00
2018-11-12T04:07:13.024Z,19.23
2018-11-12T04:09:40.714Z,18.85
2018-11-12T04:12:08.431Z,17.40
2018-11-12T04:14:36.123Z,17.48
2018-11-12T04:17:03.942Z,18.12
2018-11-12T04:19:31.622Z,16.67
2018-11-12T04:21:59.318Z,16.48
2018-11-12T04:24:27.010Z,16.65
2018-11-12T04:26:54.737Z,17.40
2018-11-12T04:29:22.437Z,17.87
2018-11-12T04:31:50.142Z,18.02
2018-11-12T04:34:17.851Z,16.82
2018-11-12T04:36:45.557Z,18.00
2018-11-12T04:39:13.249Z,16.65
2018-11-12T04:41:40.952Z,18.10
2018-11-12T04:44:08.824Z,18.15
2018-11-12T04:46:36.539Z,15.58
2018-11-12T04:49:04.661Z,16.87
2018-11-12T04:51:32.356Z,16.57
2018-11-12T04:54:00.061Z,18.25
2018-11-12T04:56:27.859Z,17.27
2018-11-12T04:58:55.545Z,17.87
2018-11-12T05:01:23.256Z,17.50
2018-11-12T05:03:50.941Z,16.60
2018-11-12T05:06:18.655Z,17.23
2018-11-12T05:08:46.362Z,17.70
2018-11-12T05:11:14.047Z,18.42
2018-11-12T05:13:41.770Z,17.30
2018-11-12T05:16:09.479Z,18.10
2018-11-12T05:18:37.150Z,18.80
2018-11-12T05:21:05.103Z,17.87
2018-11-12T05:23:32.798Z,17.05
2018-11-12T05:26:00.519Z,17.37
2018-11-12T05:28:28.220Z,16.62
2018-11-12T05:30:55.921Z,17.55
2018-11-12T05:33:23.617Z,17.90
2018-11-12T05:35:51.293Z,18.10
2018-11-12T05:38:19.071Z,16.35
2018-11-12T05:40:46.724Z,18.20
2018-11-12T05:43:14.428Z,15.98
2018-11-12T05:45:42.141Z,17.62
2018-11-12T05:48:09.913Z,19.55
2018-11-12T05:50:37.610Z,18.32
2018-11-12T05:53:05.418Z,18.42
2018-11-12T05:55:33.752Z,21.90
2018-11-12T05:58:01.723Z,17.40
2018-11-12T06:00:31.585Z,16.85
2018-11-12T06:02:59.428Z,17.82
2018-11-12T06:05:27.125Z,19.12
2018-11-12T06:07:54.881Z,18.67
2018-11-12T06:10:24.034Z,17.55
2018-11-12T06:12:52.085Z,17.77
2018-11-12T06:15:20.320Z,18.60
2018-11-12T06:17:48.945Z,19.17
2018-11-12T06:20:18.672Z,16.60
2018-11-12T06:22:46.567Z,17.90
2018-11-12T06:25:16.711Z,18.92
2018-11-12T06:27:44.428Z,17.73
2018-11-12T06:30:22.271Z,17.50
2018-11-12T06:32:50.087Z,20.48
2018-11-12T06:35:18.354Z,18.15
2018-11-12T06:37:46.788Z,18.30
2018-11-12T06:40:15.735Z,17.57
2018-11-12T06:42:43.586Z,16.90
2018-11-12T06:45:14.646Z,16.48
2018-11-12T06:47:43.333Z,18.65
2018-11-12T06:50:14.401Z,19.65
2018-11-12T06:52:42.138Z,18.20
2018-11-12T06:55:11.149Z,16.95
2018-11-12T06:57:39.304Z,17.12
2018-11-12T07:00:25.125Z,16.82
2018-11-12T07:02:52.919Z,16.07
2018-11-12T07:05:21.019Z,16.48
2018-11-12T07:07:48.815Z,16.95
2018-11-12T07:10:17.859Z,17.32
2018-11-12T07:12:46.670Z,16.12
2018-11-12T07:15:15.797Z,15.90
2018-11-12T07:17:43.610Z,16.50
2018-11-12T07:20:17.038Z,15.43
2018-11-12T07:22:44.916Z,17.10
2018-11-12T07:25:13.928Z,16.45
2018-11-12T07:27:41.647Z,16.12
2018-11-12T07:30:11.785Z,16.12
2018-11-12T07:32:39.578Z,16.07
2018-11-12T07:35:08.829Z,15.80
2018-11-12T07:37:36.571Z,15.95
2018-11-12T07:40:06.208Z,14.58
2018-11-12T07:42:33.955Z,16.30
2018-11-12T07:45:01.725Z,15.95
2018-11-12T07:47:29.459Z,15.75
2018-11-12T07:49:57.343Z,15.25
2018-11-12T07:52:25.188Z,16.02
2018-11-12T07:54:53.005Z,15.45
2018-11-12T07:57:20.814Z,16.93
2018-11-12T07:59:48.619Z,18.70
2018-11-12T08:02:16.354Z,18.17
2018-11-12T08:04:44.133Z,18.35
2018-11-12T08:07:11.909Z,18.70
2018-11-12T08:09:39.630Z,19.12
2018-11-12T08:12:07.438Z,19.92
2018-11-12T08:14:35.205Z,19.50
2018-11-12T08:17:02.919Z,22.05
2018-11-12T08:19:30.689Z,20.72
2018-11-12T08:21:59.246Z,23.10
2018-11-12T08:24:27.022Z,21.30
2018-11-12T08:26:54.798Z,20.27
2018-11-12T08:29:22.631Z,22.52
2018-11-12T08:31:50.524Z,19.07
2018-11-12T08:34:18.390Z,18.82
2018-11-12T08:36:46.235Z,17.85
2018-11-12T08:39:14.011Z,17.60
2018-11-12T08:41:41.776Z,18.42
2018-11-12T08:44:09.531Z,16.90
2018-11-12T08:46:37.290Z,17.48
2018-11-12T08:49:05.891Z,19.32
2018-11-12T08:51:33.503Z,18.80
2018-11-12T08:54:01.255Z,17.12
2018-11-12T08:56:29.047Z,17.00
2018-11-12T08:58:56.791Z,17.77
2018-11-12T09:01:25.378Z,18.98
2018-11-12T09:03:53.084Z,17.40
2018-11-12T09:06:20.810Z,19.20
2018-11-12T09:08:48.532Z,17.10
2018-11-12T09:11:16.264Z,18.10
2018-11-12T09:13:44.357Z,17.55
2018-11-12T09:16:11.742Z,19.37
2018-11-12T09:18:39.443Z,18.87
2018-11-12T09:21:07.190Z,18.80
2018-11-12T09:23:34.899Z,20.68
2018-11-12T09:26:02.607Z,17.92
2018-11-12T09:28:30.330Z,19.45
2018-11-12T09:30:59.500Z,19.12
2018-11-12T09:33:25.796Z,18.70
2018-11-12T09:35:53.580Z,18.05
2018-11-12T09:40:48.921Z,20.30
2018-11-12T09:43:16.691Z,20.27
2018-11-12T09:45:44.466Z,18.85
2018-11-12T09:48:12.189Z,18.75
2018-11-12T09:50:39.925Z,19.57
2018-11-12T09:53:07.678Z,18.17
2018-11-12T09:55:35.408Z,18.50
2018-11-12T09:58:05.399Z,19.32
2018-11-12T10:00:33.533Z,19.07
2018-11-12T10:03:02.486Z,18.67
2018-11-12T10:05:30.580Z,19.40
2018-11-12T10:08:02.164Z,21.07
2018-11-12T10:10:34.371Z,21.73
2018-11-12T10:13:02.244Z,24.05
2018-11-12T10:15:31.367Z,21.75
2018-11-12T10:17:58.819Z,23.83
2018-11-12T10:20:24.729Z,24.92
2018-11-12T10:22:52.658Z,24.85
2018-11-12T10:25:21.300Z,22.73
2018-11-12T10:27:49.482Z,24.18
2018-11-12T10:30:17.774Z,24.35
2018-11-12T10:32:45.481Z,23.75
2018-11-12T10:35:13.732Z,24.55
2018-11-12T10:37:41.882Z,23.83
2018-11-12T10:40:14.361Z,20.68
2018-11-12T10:42:42.543Z,22.90
2018-11-12T10:45:10.401Z,22.27
2018-11-12T10:47:45.750Z,21.50
2018-11-12T10:50:13.780Z,22.17
2018-11-12T10:52:41.481Z,21.33
2018-11-12T10:55:12.300Z,20.72
2018-11-12T10:57:40.500Z,23.47
2018-11-12T11:00:17.696Z,21.90
2018-11-12T11:02:51.072Z,21.57
2018-11-12T11:05:19.018Z,21.05
2018-11-12T11:07:46.834Z,20.72
2018-11-12T11:10:14.626Z,19.48
2018-11-12T11:12:43.165Z,21.02
2018-11-12T11:15:10.920Z,19.77
2018-11-12T11:17:38.621Z,19.60
2018-11-12T11:20:06.358Z,19.73
2018-11-12T11:22:34.074Z,19.45
2018-11-12T11:25:01.821Z,18.73
2018-11-12T11:27:29.572Z,19.05
2018-11-12T11:29:57.354Z,17.90
2018-11-12T11:32:25.158Z,18.55
2018-11-12T11:34:53.811Z,18.20
2018-11-12T11:37:21.557Z,18.95
2018-11-12T11:39:49.319Z,17.17
2018-11-12T11:42:17.015Z,18.90
2018-11-12T11:44:44.733Z,18.90
2018-11-12T11:47:12.493Z,19.73
2018-11-12T11:49:40.193Z,21.20
2018-11-12T11:52:08.075Z,19.90
2018-11-12T11:54:35.792Z,19.62
2018-11-12T11:57:03.561Z,19.32
2018-11-12T11:59:31.311Z,20.65
2018-11-12T12:01:59.271Z,20.00
2018-11-12T12:04:27.014Z,21.25
2018-11-12T12:06:54.732Z,21.75
2018-11-12T12:09:22.497Z,22.60
2018-11-12T12:11:50.225Z,20.45
2018-11-12T12:14:18.237Z,20.00
2018-11-12T12:16:45.961Z,21.55
2018-11-12T12:19:13.694Z,20.97
2018-11-12T12:21:41.428Z,19.23
2018-11-12T12:24:09.173Z,21.37
2018-11-12T12:26:36.907Z,19.40
2018-11-12T12:29:05.225Z,20.50
2018-11-12T12:31:33.025Z,19.92
2018-11-12T12:34:00.746Z,20.23
2018-11-12T12:36:28.610Z,22.43
2018-11-12T12:38:56.366Z,25.47
2018-11-12T12:41:24.283Z,23.80
2018-11-12T12:43:52.029Z,34.13
2018-11-12T12:46:19.817Z,32.03
2018-11-12T12:48:47.610Z,23.00
2018-11-12T12:51:15.779Z,28.50
2018-11-12T12:53:43.545Z,30.53
2018-11-12T12:56:11.863Z,25.53
2018-11-12T12:58:39.667Z,21.57
2018-11-12T13:01:07.448Z,28.17
2018-11-12T13:03:35.182Z,35.50
2018-11-12T13:06:02.941Z,28.83
2018-11-12T13:08:30.681Z,23.67
2018-11-12T13:10:58.455Z,21.10
2018-11-12T13:13:26.259Z,21.20
2018-11-12T13:15:54.003Z,23.70
2018-11-12T13:18:21.761Z,20.00
2018-11-12T13:20:50.618Z,21.85
2018-11-12T13:23:18.472Z,22.32
2018-11-12T13:25:46.331Z,22.33
2018-11-12T13:28:14.116Z,21.53
2018-11-12T13:30:41.876Z,21.50
2018-11-12T13:33:09.714Z,21.20
2018-11-12T13:35:37.523Z,21.17
2018-11-12T13:38:05.701Z,20.80
2018-11-12T13:40:34.007Z,19.82
2018-11-12T13:43:01.803Z,20.15
2018-11-12T13:45:29.627Z,20.90
2018-11-12T13:47:58.345Z,21.33
2018-11-12T13:50:28.012Z,20.47
2018-11-12T13:52:56.399Z,23.30
2018-11-12T13:55:24.526Z,21.23
2018-11-12T13:57:52.436Z,20.80
2018-11-12T14:00:22.973Z,20.17
2018-11-12T14:02:51.997Z,19.42
2018-11-12T14:05:20.715Z,20.62
2018-11-12T14:07:48.657Z,21.75
2018-11-12T14:10:17.857Z,22.98
2018-11-12T14:12:45.792Z,22.30
2018-11-12T14:15:15.421Z,21.20
2018-11-12T14:17:43.598Z,19.43
2018-11-12T14:20:11.897Z,19.90
2018-11-12T14:22:39.611Z,21.00
2018-11-12T14:25:09.088Z,20.95
2018-11-12T14:27:37.022Z,20.85
2018-11-12T14:30:05.834Z,21.55
2018-11-12T14:32:33.630Z,21.00
2018-11-12T14:35:01.413Z,21.15
2018-11-12T14:37:29.245Z,21.70
2018-11-12T14:39:57.167Z,19.67
2018-11-12T14:42:24.989Z,20.77
2018-11-12T14:44:52.766Z,20.60
2018-11-12T14:47:20.619Z,20.17
2018-11-12T14:49:48.393Z,20.52
2018-11-12T14:52:16.158Z,21.23
2018-11-12T14:54:44.076Z,21.62
2018-11-12T14:57:11.877Z,21.30
2018-11-12T14:59:39.720Z,21.20
2018-11-12T15:02:07.594Z,23.50
2018-11-12T15:04:35.379Z,23.02
2018-11-12T15:07:03.218Z,23.32
2018-11-12T15:09:31.017Z,23.22
2018-11-12T15:11:58.781Z,22.02
2018-11-12T15:14:26.579Z,24.37
2018-11-12T15:16:54.348Z,23.02
2018-11-12T15:19:22.141Z,20.57
2018-11-12T15:21:49.842Z,21.30
2018-11-12T15:24:17.652Z,22.27
2018-11-12T15:26:45.385Z,21.42
2018-11-12T15:29:13.116Z,20.72
2018-11-12T15:31:40.833Z,22.60
2018-11-12T15:34:08.570Z,22.98
2018-11-12T15:36:36.372Z,21.65
2018-11-12T15:39:07.375Z,23.30
2018-11-12T15:41:35.153Z,21.97
2018-11-12T15:44:03.392Z,22.17
2018-11-12T15:46:31.129Z,21.35
2018-11-12T15:48:58.841Z,21.65
2018-11-12T15:51:26.612Z,23.77
2018-11-12T15:53:54.322Z,23.30
2018-11-12T15:56:22.066Z,21.48
2018-11-12T15:58:49.817Z,22.37
2018-11-12T16:01:17.571Z,23.07
2018-11-12T16:03:45.282Z,25.08
2018-11-12T16:06:13.543Z,23.00
2018-11-12T16:08:41.266Z,22.87
2018-11-12T16:11:09.078Z,24.37
2018-11-12T16:13:36.820Z,23.45
2018-11-12T16:16:04.590Z,26.68
2018-11-12T16:18:32.301Z,22.82
2018-11-12T16:21:00.114Z,23.85
2018-11-12T16:23:27.963Z,24.98
2018-11-12T16:25:55.704Z,25.08
2018-11-12T16:28:23.487Z,25.37
2018-11-12T16:30:51.227Z,28.50
2018-11-12T16:33:19.006Z,27.87
2018-11-12T16:35:46.766Z,26.82
2018-11-12T16:38:14.588Z,27.50
2018-11-12T16:40:42.341Z,26.37
2018-11-12T16:43:10.094Z,26.40
2018-11-12T16:45:37.883Z,25.92
2018-11-12T16:48:05.670Z,25.35
2018-11-12T16:50:33.491Z,26.45
2018-11-12T16:53:01.305Z,27.25
2018-11-12T16:55:29.033Z,26.82
2018-11-12T16:57:56.827Z,27.98
2018-11-12T17:00:24.937Z,27.30
2018-11-12T17:02:52.789Z,26.50
2018-11-12T17:05:22.060Z,28.73
2018-11-12T17:07:49.906Z,25.70
2018-11-12T17:10:19.351Z,27.58
2018-11-12T17:12:47.872Z,27.45
2018-11-12T17:15:16.011Z,26.60
2018-11-12T17:17:44.218Z,27.58
2018-11-12T17:20:13.188Z,28.65
2018-11-12T17:22:40.991Z,25.52
2018-11-12T17:25:10.018Z,26.95
2018-11-12T17:27:37.812Z,26.60
2018-11-12T17:30:11.569Z,25.65
2018-11-12T17:32:39.393Z,26.20
2018-11-12T17:35:08.840Z,22.25
2018-11-12T17:37:36.825Z,27.22
2018-11-12T17:40:07.604Z,25.20
2018-11-12T17:42:35.391Z,24.47
2018-11-12T17:45:03.393Z,26.10
2018-11-12T17:47:31.201Z,26.90
2018-11-12T17:49:58.989Z,24.27
2018-11-12T17:52:26.729Z,25.05
2018-11-12T17:54:54.501Z,23.50
2018-11-12T17:57:22.266Z,24.82
2018-11-12T17:59:50.013Z,25.40
2018-11-12T18:02:19.616Z,27.20
2018-11-12T18:04:47.417Z,24.63
2018-11-12T18:07:15.328Z,23.40
2018-11-12T18:09:43.016Z,27.05
2018-11-12T18:12:10.759Z,24.80
2018-11-12T18:14:38.553Z,24.98
2018-11-12T18:17:06.329Z,26.62
2018-11-12T18:19:34.232Z,24.07
2018-11-12T18:22:02.041Z,25.72
2018-11-12T18:24:29.833Z,27.45
2018-11-12T18:26:57.644Z,25.60
2018-11-12T18:29:25.368Z,25.60
2018-11-12T18:31:53.216Z,26.60
2018-11-12T18:34:20.950Z,26.30
2018-11-12T18:36:48.775Z,26.65
2018-11-12T18:39:16.546Z,25.80
2018-11-12T18:41:44.318Z,26.12
2018-11-12T18:44:12.106Z,26.05
2018-11-12T18:46:39.871Z,25.90
2018-11-12T18:49:07.696Z,24.67
2018-11-12T18:51:35.491Z,25.55
2018-11-12T18:54:03.401Z,27.25
2018-11-12T18:56:31.151Z,24.55
2018-11-12T18:58:58.963Z,27.22
2018-11-12T19:01:26.727Z,25.10
2018-11-12T19:03:54.494Z,27.15
2018-11-12T19:06:22.245Z,27.67
2018-11-12T19:08:49.964Z,26.62
2018-11-12T19:11:17.778Z,26.25
2018-11-12T19:13:45.542Z,30.92
2018-11-12T19:16:13.308Z,30.00
2018-11-12T19:18:41.041Z,27.35
2018-11-12T19:21:08.916Z,27.95
2018-11-12T19:23:36.738Z,27.48
2018-11-12T19:26:04.458Z,29.30
2018-11-12T19:28:32.726Z,27.17
2018-11-12T19:31:00.460Z,28.98
2018-11-12T19:33:28.312Z,28.30
2018-11-12T19:35:56.109Z,28.47
2018-11-12T19:38:23.858Z,28.62
2018-11-12T19:40:51.654Z,28.70
2018-11-12T19:43:19.404Z,26.82
2018-11-12T19:45:47.518Z,29.32
2018-11-12T19:48:15.505Z,28.47
2018-11-12T19:50:43.667Z,28.35
2018-11-12T19:53:11.437Z,30.15
2018-11-12T19:55:40.937Z,31.50
2018-11-12T19:58:12.058Z,31.75
2018-11-12T20:00:44.690Z,30.57
2018-11-12T20:03:16.032Z,28.90
2018-11-12T20:05:47.996Z,28.73
2018-11-12T20:08:22.923Z,27.77
2018-11-12T20:10:55.537Z,27.98
2018-11-12T20:13:23.693Z,31.00
2018-11-12T20:15:51.537Z,29.57
2018-11-12T20:18:19.298Z,31.20
2018-11-12T20:20:47.073Z,29.92
2018-11-12T20:23:14.796Z,29.07
2018-11-12T20:25:42.551Z,29.23
2018-11-12T20:28:10.401Z,31.95
2018-11-12T20:30:39.438Z,29.90
2018-11-12T20:33:07.207Z,29.80
2018-11-12T20:35:34.930Z,29.23
2018-11-12T20:38:02.682Z,28.25
2018-11-12T20:40:30.517Z,29.65
2018-11-12T20:42:58.282Z,28.30
2018-11-12T20:45:26.287Z,28.80
2018-11-12T20:47:55.272Z,27.15
2018-11-12T20:50:22.978Z,29.40
2018-11-12T20:52:50.740Z,28.15
2018-11-12T20:55:18.756Z,30.10
2018-11-12T20:57:46.766Z,30.08
2018-11-12T21:00:19.675Z,32.38
2018-11-12T21:02:48.834Z,33.23
2018-11-12T21:05:17.087Z,31.70
2018-11-12T21:07:44.785Z,30.12
2018-11-12T21:10:14.557Z,28.12
2018-11-12T21:12:42.627Z,31.12
2018-11-12T21:15:11.898Z,29.92
2018-11-12T21:17:39.666Z,28.42
2018-11-12T21:20:11.060Z,30.80
2018-11-12T21:22:38.869Z,29.35
2018-11-12T21:25:07.965Z,28.80
2018-11-12T21:27:35.801Z,29.98
2018-11-12T21:30:03.662Z,31.97
2018-11-12T21:32:31.458Z,31.85
2018-11-12T21:34:59.206Z,30.77
2018-11-12T21:37:26.938Z,29.98
2018-11-12T21:39:54.677Z,33.50
2018-11-12T21:42:22.394Z,30.37
2018-11-12T21:44:50.146Z,32.10
2018-11-12T21:47:17.853Z,31.17
2018-11-12T21:49:45.575Z,32.05
2018-11-12T21:52:13.326Z,29.63
2018-11-12T21:54:41.073Z,32.28
2018-11-12T21:57:08.830Z,34.10
2018-11-12T21:59:36.564Z,32.20
2018-11-12T22:02:04.409Z,35.80
2018-11-12T22:04:32.127Z,32.93
2018-11-12T22:06:59.882Z,35.28
2018-11-12T22:09:27.632Z,31.85
2018-11-12T22:11:55.382Z,29.23
2018-11-12T22:14:23.174Z,30.85
2018-11-12T22:16:50.980Z,27.65
2018-11-12T22:19:18.787Z,30.25
2018-11-12T22:21:46.444Z,31.73
2018-11-12T22:24:14.157Z,30.52
2018-11-12T22:26:41.916Z,29.55
2018-11-12T22:29:09.661Z,30.30
2018-11-12T22:31:37.417Z,28.07
2018-11-12T22:34:05.456Z,26.97
2018-11-12T22:36:33.184Z,25.88
2018-11-12T22:39:00.885Z,28.35
2018-11-12T22:41:28.640Z,27.07
2018-11-12T22:43:56.365Z,28.85
2018-11-12T22:46:24.098Z,31.33
2018-11-12T22:48:51.869Z,28.92
2018-11-12T22:51:19.637Z,28.98
2018-11-12T22:53:47.397Z,24.72
2018-11-12T22:56:15.091Z,26.90
2018-11-12T22:58:42.814Z,26.85
2018-11-12T23:01:10.617Z,24.92
2018-11-12T23:03:38.344Z,25.95
2018-11-12T23:06:10.471Z,25.77
2018-11-12T23:08:38.431Z,26.33
2018-11-12T23:11:06.231Z,25.20
2018-11-12T23:13:34.002Z,25.43
2018-11-12T23:16:01.740Z,25.57
2018-11-12T23:18:29.533Z,28.75
2018-11-12T23:20:57.302Z,27.42
2018-11-12T23:23:25.001Z,27.13
2018-11-12T23:25:52.781Z,26.60
2018-11-12T23:28:20.506Z,27.62
2018-11-12T23:30:48.185Z,25.30
2018-11-12T23:33:15.949Z,25.10
2018-11-12T23:35:43.700Z,23.75
2018-11-12T23:38:11.423Z,27.20
2018-11-12T23:40:39.187Z,26.35
2018-11-12T23:43:06.914Z,26.15
2018-11-12T23:45:34.689Z,26.25
2018-11-12T23:48:02.455Z,25.32
2018-11-12T23:50:30.180Z,23.87
2018-11-12T23:52:57.880Z,24.07
2018-11-12T23:55:25.638Z,23.35
2018-11-12T23:57:53.352Z,22.58
